sensor_id;sensor_type;location;lat;lon;timestamp;P1;durP1;ratioP1;P2;durP2;ratioP2
31618;SDS011;18230;51.502;7.108;2023-06-24T00:04:39;9.65;;;7.35;;
31618;SDS011;18230;51.502;7.108;2023-06-24T00:09:40;9.65;;;7.47;;
31618;SDS011;18230;51.502;7.108;2023-06-24T00:14:40;10.95;;;8.07;;
31618;SDS011;18230;51.502;7.108;2023-06-24T00:19:41;11.30;;;8.18;;
31618;SDS011;18230;51.502;7.108;2023-06-24T00:24:43;14.02;;;9.80;;
31618;SDS011;18230;51.502;7.108;2023-06-24T00:29:48;19.92;;;13.32;;
31618;SDS011;18230;51.502;7.108;2023-06-24T00:34:49;14.32;;;11.00;;
31618;SDS011;18230;51.502;7.108;2023-06-24T00:39:50;34.83;;;26.42;;
31618;SDS011;18230;51.502;7.108;2023-06-24T00:44:51;33.13;;;23.10;;
31618;SDS011;18230;51.502;7.108;2023-06-24T00:49:52;15.32;;;10.18;;
31618;SDS011;18230;51.502;7.108;2023-06-24T00:54:52;15.25;;;11.95;;
31618;SDS011;18230;51.502;7.108;2023-06-24T01:05:36;14.27;;;10.27;;
31618;SDS011;18230;51.502;7.108;2023-06-24T01:10:36;14.93;;;9.48;;
31618;SDS011;18230;51.502;7.108;2023-06-24T01:15:37;14.80;;;9.63;;
31618;SDS011;18230;51.502;7.108;2023-06-24T01:26:11;14.25;;;9.35;;
31618;SDS011;18230;51.502;7.108;2023-06-24T01:37:08;12.07;;;7.88;;
31618;SDS011;18230;51.502;7.108;2023-06-24T01:42:17;13.68;;;8.80;;
31618;SDS011;18230;51.502;7.108;2023-06-24T01:47:21;12.55;;;9.68;;
31618;SDS011;18230;51.502;7.108;2023-06-24T01:52:27;23.95;;;18.73;;
31618;SDS011;18230;51.502;7.108;2023-06-24T01:57:30;27.98;;;20.23;;
31618;SDS011;18230;51.502;7.108;2023-06-24T02:07:41;16.60;;;11.80;;
31618;SDS011;18230;51.502;7.108;2023-06-24T02:12:45;15.18;;;12.23;;
31618;SDS011;18230;51.502;7.108;2023-06-24T02:17:49;12.20;;;9.20;;
31618;SDS011;18230;51.502;7.108;2023-06-24T02:22:52;13.57;;;9.25;;
31618;SDS011;18230;51.502;7.108;2023-06-24T02:27:55;14.88;;;10.35;;
31618;SDS011;18230;51.502;7.108;2023-06-24T02:32:56;12.57;;;8.60;;
31618;SDS011;18230;51.502;7.108;2023-06-24T02:37:57;16.50;;;10.45;;
31618;SDS011;18230;51.502;7.108;2023-06-24T02:42:58;16.85;;;9.40;;
31618;SDS011;18230;51.502;7.108;2023-06-24T02:47:59;13.30;;;8.68;;
31618;SDS011;18230;51.502;7.108;2023-06-24T02:53:00;12.00;;;8.68;;
31618;SDS011;18230;51.502;7.108;2023-06-24T02:58:02;10.77;;;8.30;;
31618;SDS011;18230;51.502;7.108;2023-06-24T03:03:07;15.65;;;8.75;;
31618;SDS011;18230;51.502;7.108;2023-06-24T03:08:09;10.82;;;7.90;;
31618;SDS011;18230;51.502;7.108;2023-06-24T03:13:12;13.70;;;7.95;;
31618;SDS011;18230;51.502;7.108;2023-06-24T03:18:12;12.73;;;8.43;;
31618;SDS011;18230;51.502;7.108;2023-06-24T03:23:13;12.95;;;8.65;;
31618;SDS011;18230;51.502;7.108;2023-06-24T03:28:14;13.75;;;7.65;;
31618;SDS011;18230;51.502;7.108;2023-06-24T03:33:14;23.45;;;15.55;;
31618;SDS011;18230;51.502;7.108;2023-06-24T03:38:16;29.52;;;16.90;;
31618;SDS011;18230;51.502;7.108;2023-06-24T03:43:17;19.33;;;13.75;;
31618;SDS011;18230;51.502;7.108;2023-06-24T03:48:18;14.52;;;10.60;;
31618;SDS011;18230;51.502;7.108;2023-06-24T03:53:21;12.75;;;10.00;;
31618;SDS011;18230;51.502;7.108;2023-06-24T03:58:22;12.65;;;9.57;;
31618;SDS011;18230;51.502;7.108;2023-06-24T04:03:23;20.38;;;12.30;;
31618;SDS011;18230;51.502;7.108;2023-06-24T04:08:25;13.50;;;9.23;;
31618;SDS011;18230;51.502;7.108;2023-06-24T04:13:29;12.18;;;8.73;;
31618;SDS011;18230;51.502;7.108;2023-06-24T04:18:30;15.32;;;10.82;;
31618;SDS011;18230;51.502;7.108;2023-06-24T04:23:33;14.68;;;8.05;;
31618;SDS011;18230;51.502;7.108;2023-06-24T04:28:34;13.65;;;8.70;;
31618;SDS011;18230;51.502;7.108;2023-06-24T04:33:35;14.30;;;8.15;;
31618;SDS011;18230;51.502;7.108;2023-06-24T04:38:35;14.73;;;7.63;;
31618;SDS011;18230;51.502;7.108;2023-06-24T04:43:36;10.25;;;6.45;;
31618;SDS011;18230;51.502;7.108;2023-06-24T04:48:37;9.55;;;6.22;;
31618;SDS011;18230;51.502;7.108;2023-06-24T04:53:37;11.35;;;7.20;;
31618;SDS011;18230;51.502;7.108;2023-06-24T04:58:38;13.07;;;6.45;;
31618;SDS011;18230;51.502;7.108;2023-06-24T05:03:39;12.73;;;7.57;;
31618;SDS011;18230;51.502;7.108;2023-06-24T05:08:39;9.63;;;6.75;;
31618;SDS011;18230;51.502;7.108;2023-06-24T05:13:40;12.45;;;7.03;;
31618;SDS011;18230;51.502;7.108;2023-06-24T05:18:41;11.23;;;7.13;;
31618;SDS011;18230;51.502;7.108;2023-06-24T05:23:42;10.40;;;6.38;;
31618;SDS011;18230;51.502;7.108;2023-06-24T05:28:42;7.95;;;6.35;;
31618;SDS011;18230;51.502;7.108;2023-06-24T05:33:43;10.30;;;6.97;;
31618;SDS011;18230;51.502;7.108;2023-06-24T05:38:43;11.50;;;7.22;;
31618;SDS011;18230;51.502;7.108;2023-06-24T05:43:44;12.73;;;7.35;;
31618;SDS011;18230;51.502;7.108;2023-06-24T05:48:51;11.15;;;6.90;;
31618;SDS011;18230;51.502;7.108;2023-06-24T05:53:52;10.02;;;6.55;;
31618;SDS011;18230;51.502;7.108;2023-06-24T05:58:53;9.70;;;6.72;;
31618;SDS011;18230;51.502;7.108;2023-06-24T06:03:53;10.45;;;7.10;;
31618;SDS011;18230;51.502;7.108;2023-06-24T06:08:54;8.57;;;6.88;;
31618;SDS011;18230;51.502;7.108;2023-06-24T06:13:56;10.57;;;7.70;;
31618;SDS011;18230;51.502;7.108;2023-06-24T06:18:56;12.98;;;7.65;;
31618;SDS011;18230;51.502;7.108;2023-06-24T06:23:57;10.45;;;7.07;;
31618;SDS011;18230;51.502;7.108;2023-06-24T06:28:58;9.60;;;7.13;;
31618;SDS011;18230;51.502;7.108;2023-06-24T06:33:59;12.55;;;8.07;;
31618;SDS011;18230;51.502;7.108;2023-06-24T06:39:00;11.40;;;7.18;;
31618;SDS011;18230;51.502;7.108;2023-06-24T06:44:02;13.18;;;10.38;;
31618;SDS011;18230;51.502;7.108;2023-06-24T06:49:02;14.45;;;9.70;;
31618;SDS011;18230;51.502;7.108;2023-06-24T06:54:03;13.13;;;11.00;;
31618;SDS011;18230;51.502;7.108;2023-06-24T06:59:10;12.77;;;10.20;;
31618;SDS011;18230;51.502;7.108;2023-06-24T07:04:11;17.40;;;11.13;;
31618;SDS011;18230;51.502;7.108;2023-06-24T07:09:11;15.20;;;11.02;;
31618;SDS011;18230;51.502;7.108;2023-06-24T07:14:12;17.45;;;12.00;;
31618;SDS011;18230;51.502;7.108;2023-06-24T07:19:12;15.35;;;11.00;;
31618;SDS011;18230;51.502;7.108;2023-06-24T07:24:13;13.25;;;11.15;;
31618;SDS011;18230;51.502;7.108;2023-06-24T07:29:14;15.90;;;11.50;;
31618;SDS011;18230;51.502;7.108;2023-06-24T07:34:14;14.10;;;10.43;;
31618;SDS011;18230;51.502;7.108;2023-06-24T07:39:15;18.17;;;11.80;;
31618;SDS011;18230;51.502;7.108;2023-06-24T07:44:16;18.75;;;12.48;;
31618;SDS011;18230;51.502;7.108;2023-06-24T07:49:17;19.65;;;13.00;;
31618;SDS011;18230;51.502;7.108;2023-06-24T07:54:18;20.45;;;14.20;;
31618;SDS011;18230;51.502;7.108;2023-06-24T07:59:19;16.33;;;13.18;;
31618;SDS011;18230;51.502;7.108;2023-06-24T08:04:19;17.20;;;13.98;;
31618;SDS011;18230;51.502;7.108;2023-06-24T08:09:20;19.00;;;15.35;;
31618;SDS011;18230;51.502;7.108;2023-06-24T08:14:22;22.73;;;15.65;;
31618;SDS011;18230;51.502;7.108;2023-06-24T08:19:23;23.83;;;15.90;;
31618;SDS011;18230;51.502;7.108;2023-06-24T08:24:24;28.10;;;17.48;;
31618;SDS011;18230;51.502;7.108;2023-06-24T08:29:24;23.27;;;17.10;;
31618;SDS011;18230;51.502;7.108;2023-06-24T08:34:25;28.90;;;18.63;;
31618;SDS011;18230;51.502;7.108;2023-06-24T08:39:26;24.02;;;16.20;;
31618;SDS011;18230;51.502;7.108;2023-06-24T08:44:26;20.80;;;13.40;;
31618;SDS011;18230;51.502;7.108;2023-06-24T08:49:28;21.30;;;13.50;;
31618;SDS011;18230;51.502;7.108;2023-06-24T08:54:31;19.48;;;12.35;;
31618;SDS011;18230;51.502;7.108;2023-06-24T08:59:36;21.40;;;12.00;;
31618;SDS011;18230;51.502;7.108;2023-06-24T09:04:37;13.85;;;8.90;;
31618;SDS011;18230;51.502;7.108;2023-06-24T09:09:41;17.15;;;9.60;;
31618;SDS011;18230;51.502;7.108;2023-06-24T09:14:47;14.15;;;10.48;;
31618;SDS011;18230;51.502;7.108;2023-06-24T09:19:49;12.73;;;7.28;;
31618;SDS011;18230;51.502;7.108;2023-06-24T09:24:50;8.20;;;5.32;;
31618;SDS011;18230;51.502;7.108;2023-06-24T09:29:51;9.25;;;5.40;;
31618;SDS011;18230;51.502;7.108;2023-06-24T09:34:54;10.57;;;5.72;;
31618;SDS011;18230;51.502;7.108;2023-06-24T09:39:54;14.77;;;5.90;;
31618;SDS011;18230;51.502;7.108;2023-06-24T09:44:56;10.07;;;5.97;;
31618;SDS011;18230;51.502;7.108;2023-06-24T09:49:56;12.15;;;6.45;;
31618;SDS011;18230;51.502;7.108;2023-06-24T09:54:57;11.90;;;5.88;;
31618;SDS011;18230;51.502;7.108;2023-06-24T10:00:02;8.95;;;4.85;;
31618;SDS011;18230;51.502;7.108;2023-06-24T10:05:03;7.03;;;5.35;;
31618;SDS011;18230;51.502;7.108;2023-06-24T10:10:05;7.15;;;5.15;;
31618;SDS011;18230;51.502;7.108;2023-06-24T10:15:06;8.20;;;4.70;;
31618;SDS011;18230;51.502;7.108;2023-06-24T10:20:07;6.10;;;4.20;;
31618;SDS011;18230;51.502;7.108;2023-06-24T10:25:08;6.95;;;4.35;;
31618;SDS011;18230;51.502;7.108;2023-06-24T10:30:18;8.98;;;4.90;;
31618;SDS011;18230;51.502;7.108;2023-06-24T10:35:23;7.13;;;4.43;;
31618;SDS011;18230;51.502;7.108;2023-06-24T10:40:43;5.40;;;4.07;;
31618;SDS011;18230;51.502;7.108;2023-06-24T10:45:48;13.05;;;4.70;;
31618;SDS011;18230;51.502;7.108;2023-06-24T10:50:50;10.75;;;4.75;;
31618;SDS011;18230;51.502;7.108;2023-06-24T10:55:51;7.85;;;3.63;;
31618;SDS011;18230;51.502;7.108;2023-06-24T11:00:52;5.57;;;3.67;;
31618;SDS011;18230;51.502;7.108;2023-06-24T11:05:52;4.68;;;3.78;;
31618;SDS011;18230;51.502;7.108;2023-06-24T11:10:53;6.70;;;3.85;;
31618;SDS011;18230;51.502;7.108;2023-06-24T11:20:59;6.70;;;4.20;;
31618;SDS011;18230;51.502;7.108;2023-06-24T11:25:59;6.53;;;4.22;;
31618;SDS011;18230;51.502;7.108;2023-06-24T11:31:06;4.70;;;3.75;;
31618;SDS011;18230;51.502;7.108;2023-06-24T11:36:10;6.38;;;3.50;;
31618;SDS011;18230;51.502;7.108;2023-06-24T11:41:10;5.57;;;3.83;;
31618;SDS011;18230;51.502;7.108;2023-06-24T11:51:45;5.13;;;4.18;;
31618;SDS011;18230;51.502;7.108;2023-06-24T11:56:50;6.88;;;3.83;;
31618;SDS011;18230;51.502;7.108;2023-06-24T12:01:55;4.43;;;3.63;;
31618;SDS011;18230;51.502;7.108;2023-06-24T12:06:57;5.30;;;3.63;;
31618;SDS011;18230;51.502;7.108;2023-06-24T12:11:58;6.95;;;3.67;;
31618;SDS011;18230;51.502;7.108;2023-06-24T12:16:59;6.53;;;4.25;;
31618;SDS011;18230;51.502;7.108;2023-06-24T12:21:59;6.43;;;4.00;;
31618;SDS011;18230;51.502;7.108;2023-06-24T12:27:00;5.80;;;4.35;;
31618;SDS011;18230;51.502;7.108;2023-06-24T12:32:01;6.43;;;3.65;;
31618;SDS011;18230;51.502;7.108;2023-06-24T12:37:01;7.05;;;3.70;;
31618;SDS011;18230;51.502;7.108;2023-06-24T12:42:02;6.15;;;4.57;;
31618;SDS011;18230;51.502;7.108;2023-06-24T12:47:03;6.85;;;3.90;;
31618;SDS011;18230;51.502;7.108;2023-06-24T12:52:04;7.95;;;5.03;;
31618;SDS011;18230;51.502;7.108;2023-06-24T12:57:05;6.53;;;4.38;;
31618;SDS011;18230;51.502;7.108;2023-06-24T13:02:06;5.43;;;4.22;;
31618;SDS011;18230;51.502;7.108;2023-06-24T13:07:06;6.80;;;4.50;;
31618;SDS011;18230;51.502;7.108;2023-06-24T13:12:09;5.95;;;4.60;;
31618;SDS011;18230;51.502;7.108;2023-06-24T13:17:10;6.13;;;4.47;;
31618;SDS011;18230;51.502;7.108;2023-06-24T13:22:10;6.72;;;4.25;;
31618;SDS011;18230;51.502;7.108;2023-06-24T13:27:11;7.63;;;5.07;;
31618;SDS011;18230;51.502;7.108;2023-06-24T13:32:12;6.32;;;4.22;;
31618;SDS011;18230;51.502;7.108;2023-06-24T13:37:13;7.68;;;4.63;;
31618;SDS011;18230;51.502;7.108;2023-06-24T13:42:13;5.10;;;4.60;;
31618;SDS011;18230;51.502;7.108;2023-06-24T13:47:14;5.85;;;4.30;;
31618;SDS011;18230;51.502;7.108;2023-06-24T13:52:15;5.60;;;3.78;;
31618;SDS011;18230;51.502;7.108;2023-06-24T13:57:15;6.35;;;3.72;;
31618;SDS011;18230;51.502;7.108;2023-06-24T14:02:16;5.03;;;3.58;;
31618;SDS011;18230;51.502;7.108;2023-06-24T14:07:17;11.80;;;4.70;;
31618;SDS011;18230;51.502;7.108;2023-06-24T14:12:17;6.15;;;4.20;;
31618;SDS011;18230;51.502;7.108;2023-06-24T14:17:18;5.45;;;4.18;;
31618;SDS011;18230;51.502;7.108;2023-06-24T14:22:19;5.25;;;4.30;;
31618;SDS011;18230;51.502;7.108;2023-06-24T14:27:21;5.75;;;4.50;;
31618;SDS011;18230;51.502;7.108;2023-06-24T14:32:22;4.75;;;4.07;;
31618;SDS011;18230;51.502;7.108;2023-06-24T14:37:22;7.32;;;4.30;;
31618;SDS011;18230;51.502;7.108;2023-06-24T14:42:23;5.50;;;4.15;;
31618;SDS011;18230;51.502;7.108;2023-06-24T14:47:23;5.82;;;4.30;;
31618;SDS011;18230;51.502;7.108;2023-06-24T14:52:29;5.95;;;4.45;;
31618;SDS011;18230;51.502;7.108;2023-06-24T14:57:30;8.20;;;4.80;;
31618;SDS011;18230;51.502;7.108;2023-06-24T15:02:31;6.47;;;4.50;;
31618;SDS011;18230;51.502;7.108;2023-06-24T15:07:31;5.25;;;4.05;;
31618;SDS011;18230;51.502;7.108;2023-06-24T15:12:32;5.85;;;4.40;;
31618;SDS011;18230;51.502;7.108;2023-06-24T15:17:34;6.70;;;4.30;;
31618;SDS011;18230;51.502;7.108;2023-06-24T15:22:40;6.93;;;5.60;;
31618;SDS011;18230;51.502;7.108;2023-06-24T15:27:41;6.57;;;4.50;;
31618;SDS011;18230;51.502;7.108;2023-06-24T15:32:42;4.47;;;3.95;;
31618;SDS011;18230;51.502;7.108;2023-06-24T15:37:44;8.50;;;4.57;;
31618;SDS011;18230;51.502;7.108;2023-06-24T15:42:45;5.85;;;4.63;;
31618;SDS011;18230;51.502;7.108;2023-06-24T15:47:45;7.55;;;5.70;;
31618;SDS011;18230;51.502;7.108;2023-06-24T15:52:47;5.50;;;4.60;;
31618;SDS011;18230;51.502;7.108;2023-06-24T15:57:48;5.72;;;4.30;;
31618;SDS011;18230;51.502;7.108;2023-06-24T16:02:48;8.82;;;4.50;;
31618;SDS011;18230;51.502;7.108;2023-06-24T16:07:49;6.10;;;4.57;;
31618;SDS011;18230;51.502;7.108;2023-06-24T16:12:50;6.25;;;4.80;;
31618;SDS011;18230;51.502;7.108;2023-06-24T16:17:50;7.88;;;4.82;;
31618;SDS011;18230;51.502;7.108;2023-06-24T16:22:51;6.22;;;4.55;;
31618;SDS011;18230;51.502;7.108;2023-06-24T16:27:51;9.68;;;5.10;;
31618;SDS011;18230;51.502;7.108;2023-06-24T16:32:52;7.22;;;4.43;;
31618;SDS011;18230;51.502;7.108;2023-06-24T16:37:53;9.20;;;5.18;;
31618;SDS011;18230;51.502;7.108;2023-06-24T16:42:54;6.63;;;4.53;;
31618;SDS011;18230;51.502;7.108;2023-06-24T16:47:54;5.95;;;4.60;;
31618;SDS011;18230;51.502;7.108;2023-06-24T16:52:55;5.20;;;4.53;;
31618;SDS011;18230;51.502;7.108;2023-06-24T16:57:55;7.53;;;5.65;;
31618;SDS011;18230;51.502;7.108;2023-06-24T17:02:56;7.43;;;4.75;;
31618;SDS011;18230;51.502;7.108;2023-06-24T17:07:57;7.90;;;4.43;;
31618;SDS011;18230;51.502;7.108;2023-06-24T17:12:58;8.45;;;6.30;;
31618;SDS011;18230;51.502;7.108;2023-06-24T17:17:58;8.02;;;6.82;;
31618;SDS011;18230;51.502;7.108;2023-06-24T17:22:59;8.73;;;7.22;;
31618;SDS011;18230;51.502;7.108;2023-06-24T17:28:00;6.82;;;4.78;;
31618;SDS011;18230;51.502;7.108;2023-06-24T17:33:00;5.07;;;4.28;;
31618;SDS011;18230;51.502;7.108;2023-06-24T17:38:01;5.60;;;4.38;;
31618;SDS011;18230;51.502;7.108;2023-06-24T17:43:02;6.15;;;4.63;;
31618;SDS011;18230;51.502;7.108;2023-06-24T17:48:03;5.30;;;4.57;;
31618;SDS011;18230;51.502;7.108;2023-06-24T17:53:04;7.80;;;3.92;;
31618;SDS011;18230;51.502;7.108;2023-06-24T17:58:05;5.93;;;3.92;;
31618;SDS011;18230;51.502;7.108;2023-06-24T18:03:06;6.13;;;4.40;;
31618;SDS011;18230;51.502;7.108;2023-06-24T18:08:07;9.05;;;5.22;;
31618;SDS011;18230;51.502;7.108;2023-06-24T18:13:08;4.85;;;4.35;;
31618;SDS011;18230;51.502;7.108;2023-06-24T18:18:09;11.07;;;6.45;;
31618;SDS011;18230;51.502;7.108;2023-06-24T18:23:09;6.05;;;5.45;;
31618;SDS011;18230;51.502;7.108;2023-06-24T18:28:10;5.55;;;4.93;;
31618;SDS011;18230;51.502;7.108;2023-06-24T18:33:11;7.30;;;5.38;;
31618;SDS011;18230;51.502;7.108;2023-06-24T18:38:11;6.90;;;5.45;;
31618;SDS011;18230;51.502;7.108;2023-06-24T18:43:12;6.20;;;5.43;;
31618;SDS011;18230;51.502;7.108;2023-06-24T18:48:12;5.75;;;4.32;;
31618;SDS011;18230;51.502;7.108;2023-06-24T18:53:15;5.38;;;4.38;;
31618;SDS011;18230;51.502;7.108;2023-06-24T18:58:15;7.70;;;4.00;;
31618;SDS011;18230;51.502;7.108;2023-06-24T19:03:16;5.45;;;4.20;;
31618;SDS011;18230;51.502;7.108;2023-06-24T19:08:17;5.72;;;4.25;;
31618;SDS011;18230;51.502;7.108;2023-06-24T19:13:17;5.80;;;5.15;;
31618;SDS011;18230;51.502;7.108;2023-06-24T19:18:18;6.82;;;4.68;;
31618;SDS011;18230;51.502;7.108;2023-06-24T19:23:18;9.18;;;5.57;;
31618;SDS011;18230;51.502;7.108;2023-06-24T19:28:20;9.05;;;4.30;;
31618;SDS011;18230;51.502;7.108;2023-06-24T19:33:21;6.97;;;5.03;;
31618;SDS011;18230;51.502;7.108;2023-06-24T19:38:23;9.27;;;4.57;;
31618;SDS011;18230;51.502;7.108;2023-06-24T19:43:23;6.10;;;4.05;;
31618;SDS011;18230;51.502;7.108;2023-06-24T19:48:24;6.20;;;5.07;;
31618;SDS011;18230;51.502;7.108;2023-06-24T19:53:25;16.67;;;5.90;;
31618;SDS011;18230;51.502;7.108;2023-06-24T19:58:26;6.75;;;5.50;;
31618;SDS011;18230;51.502;7.108;2023-06-24T20:03:27;8.65;;;4.68;;
31618;SDS011;18230;51.502;7.108;2023-06-24T20:08:27;9.88;;;4.63;;
31618;SDS011;18230;51.502;7.108;2023-06-24T20:13:28;6.47;;;4.20;;
31618;SDS011;18230;51.502;7.108;2023-06-24T20:18:29;15.55;;;5.10;;
31618;SDS011;18230;51.502;7.108;2023-06-24T20:23:29;7.03;;;5.40;;
31618;SDS011;18230;51.502;7.108;2023-06-24T20:28:30;6.57;;;4.72;;
31618;SDS011;18230;51.502;7.108;2023-06-24T20:33:31;12.27;;;4.50;;
31618;SDS011;18230;51.502;7.108;2023-06-24T20:38:32;7.55;;;4.93;;
31618;SDS011;18230;51.502;7.108;2023-06-24T20:43:33;9.38;;;5.35;;
31618;SDS011;18230;51.502;7.108;2023-06-24T20:48:33;9.35;;;5.20;;
31618;SDS011;18230;51.502;7.108;2023-06-24T20:53:35;14.10;;;5.70;;
31618;SDS011;18230;51.502;7.108;2023-06-24T20:58:39;9.70;;;5.50;;
31618;SDS011;18230;51.502;7.108;2023-06-24T21:03:40;8.95;;;5.82;;
31618;SDS011;18230;51.502;7.108;2023-06-24T21:08:41;7.90;;;5.25;;
31618;SDS011;18230;51.502;7.108;2023-06-24T21:13:41;6.82;;;5.47;;
31618;SDS011;18230;51.502;7.108;2023-06-24T21:18:42;16.23;;;7.03;;
31618;SDS011;18230;51.502;7.108;2023-06-24T21:23:43;11.25;;;6.78;;
31618;SDS011;18230;51.502;7.108;2023-06-24T21:28:43;11.48;;;6.93;;
31618;SDS011;18230;51.502;7.108;2023-06-24T21:33:44;11.45;;;7.22;;
31618;SDS011;18230;51.502;7.108;2023-06-24T21:38:45;12.10;;;7.97;;
31618;SDS011;18230;51.502;7.108;2023-06-24T21:43:45;10.38;;;8.35;;
31618;SDS011;18230;51.502;7.108;2023-06-24T21:48:46;15.38;;;9.70;;
31618;SDS011;18230;51.502;7.108;2023-06-24T21:53:48;14.77;;;9.60;;
31618;SDS011;18230;51.502;7.108;2023-06-24T21:58:51;12.68;;;9.18;;
31618;SDS011;18230;51.502;7.108;2023-06-24T22:03:52;12.77;;;8.60;;
31618;SDS011;18230;51.502;7.108;2023-06-24T22:08:52;13.40;;;8.77;;
31618;SDS011;18230;51.502;7.108;2023-06-24T22:13:53;11.05;;;8.05;;
31618;SDS011;18230;51.502;7.108;2023-06-24T22:18:54;11.15;;;8.00;;
31618;SDS011;18230;51.502;7.108;2023-06-24T22:23:54;13.30;;;7.22;;
31618;SDS011;18230;51.502;7.108;2023-06-24T22:28:55;9.70;;;7.38;;
31618;SDS011;18230;51.502;7.108;2023-06-24T22:33:56;11.65;;;7.10;;
31618;SDS011;18230;51.502;7.108;2023-06-24T22:38:56;7.88;;;6.93;;
31618;SDS011;18230;51.502;7.108;2023-06-24T22:43:57;13.05;;;7.35;;
31618;SDS011;18230;51.502;7.108;2023-06-24T22:48:58;10.85;;;7.50;;
31618;SDS011;18230;51.502;7.108;2023-06-24T22:53:58;10.88;;;8.73;;
31618;SDS011;18230;51.502;7.108;2023-06-24T22:58:59;20.55;;;15.80;;
31618;SDS011;18230;51.502;7.108;2023-06-24T23:04:00;43.60;;;35.15;;
31618;SDS011;18230;51.502;7.108;2023-06-24T23:09:02;22.02;;;12.93;;
31618;SDS011;18230;51.502;7.108;2023-06-24T23:14:03;20.77;;;15.20;;
31618;SDS011;18230;51.502;7.108;2023-06-24T23:19:04;23.80;;;17.52;;
31618;SDS011;18230;51.502;7.108;2023-06-24T23:24:05;19.15;;;12.93;;
31618;SDS011;18230;51.502;7.108;2023-06-24T23:29:06;10.93;;;7.85;;
31618;SDS011;18230;51.502;7.108;2023-06-24T23:34:11;12.10;;;9.35;;
31618;SDS011;18230;51.502;7.108;2023-06-24T23:39:12;14.20;;;9.93;;
31618;SDS011;18230;51.502;7.108;2023-06-24T23:44:13;13.88;;;8.50;;
31618;SDS011;18230;51.502;7.108;2023-06-24T23:49:14;10.90;;;8.80;;
31618;SDS011;18230;51.502;7.108;2023-06-24T23:54:14;12.25;;;8.32;;
31618;SDS011;18230;51.502;7.108;2023-06-24T23:59:15;11.73;;;7.40;;
